Time;durP1;ratioP1;P1;durP2;ratioP2;P2;SDS_P1;SDS_P2;PMS_P1;PMS_P2;Temp;Humidity;BMP_temperature;BMP_pressure;BME280_temperature;BME280_humidity;BME280_pressure;Samples;Min_cycle;Max_cycle;Signal;HPM_P1;HPM_P2
2023/07/28 00:01:11;;;;;;;0.22;0.22;;;24.60;60.50;;;25.08;44.23;94347.75;5078268;28;20285;-37
2023/07/28 00:03:38;;;;;;;0.28;0.28;;;24.60;60.60;;;25.08;44.49;94331.66;5079086;28;20205;-38
2023/07/28 00:06:06;;;;;;;0.28;0.28;;;24.60;60.60;;;25.07;44.49;94338.94;5079319;28;20226;-37
2023/07/28 00:08:33;;;;;;;0.30;0.30;;;24.60;60.60;;;25.07;44.34;94327.38;5079055;28;20212;-38
2023/07/28 00:11:00;;;;;;;0.40;0.40;;;24.60;60.70;;;25.07;44.76;94330.06;5079689;28;20196;-38
2023/07/28 00:13:27;;;;;;;0.35;0.35;;;24.50;60.60;;;25.06;44.63;94325.78;5078670;28;20280;-37
2023/07/28 00:15:54;;;;;;;0.40;0.40;;;24.60;60.70;;;25.05;44.62;94332.28;5077933;28;20251;-40
2023/07/28 00:18:21;;;;;;;0.30;0.30;;;24.50;60.60;;;25.05;44.41;94321.53;5077804;28;20225;-37
2023/07/28 00:20:48;;;;;;;0.40;0.40;;;24.50;60.60;;;25.04;44.54;94334.16;5078576;28;20284;-39
2023/07/28 00:23:15;;;;;;;0.50;0.50;;;24.50;60.70;;;25.03;44.62;94329.09;5079056;28;20255;-38
2023/07/28 00:25:43;;;;;;;0.20;0.20;;;24.50;61.60;;;25.03;44.69;94335.25;5079221;28;20184;-39
2023/07/28 00:28:10;;;;;;;0.40;0.40;;;24.50;60.80;;;25.03;44.75;94329.09;5079164;28;20691;-38
2023/07/28 00:30:37;;;;;;;0.40;0.40;;;24.50;60.80;;;25.02;44.72;94335.53;5078837;28;20657;-37
2023/07/28 00:33:05;;;;;;;0.40;0.40;;;24.50;60.90;;;25.02;44.67;94335.53;5078664;28;20191;-37
2023/07/28 00:35:32;;;;;;;0.22;0.22;;;24.50;60.90;;;25.02;44.69;94333.63;5078947;28;20208;-37
2023/07/28 00:37:59;;;;;;;0.30;0.30;;;24.50;60.90;;;25.01;44.92;94324.03;5077321;28;20347;-37
2023/07/28 00:40:26;;;;;;;0.25;0.25;;;24.50;60.90;;;25.01;44.77;94324.03;5078161;28;20263;-37
2023/07/28 00:42:53;;;;;;;0.50;0.50;;;24.50;60.90;;;25.01;44.96;94325.91;5078308;28;20249;-37
2023/07/28 00:45:22;;;;;;;0.30;0.30;;;24.50;60.90;;;25.00;44.92;94306.34;5076825;28;20328;-36
2023/07/28 00:47:49;;;;;;;0.35;0.35;;;24.50;61.10;;;25.00;44.81;94302.84;5076278;28;20730;-36
2023/07/28 00:50:16;;;;;;;0.30;0.30;;;24.50;61.00;;;25.00;44.91;94314.38;5077242;28;20198;-37
2023/07/28 00:52:43;;;;;;;0.30;0.30;;;24.50;61.00;;;25.01;44.89;94309.81;5078261;28;20200;-37
2023/07/28 00:55:10;;;;;;;0.38;0.38;;;24.50;61.00;;;24.99;44.90;94299.38;5078162;28;20634;-38
2023/07/28 00:57:39;;;;;;;0.30;0.30;;;24.50;61.10;;;24.99;45.18;94307.41;5078118;28;20211;-36
2023/07/28 01:00:09;;;;;;;0.50;0.50;;;24.50;61.10;;;25.00;44.95;94294.78;5077353;28;20210;-37
2023/07/28 01:02:37;;;;;;;0.20;0.20;;;24.50;61.10;;;24.98;45.26;94302.38;5078128;28;20198;-36
2023/07/28 01:05:05;;;;;;;0.32;0.32;;;24.50;61.10;;;24.97;45.15;94298.09;5076958;28;20220;-37
2023/07/28 01:07:48;;;;;;;0.50;0.50;;;24.50;61.10;;;24.96;45.03;94291.13;5076839;28;20729;-37
2023/07/28 01:10:24;;;;;;;0.30;0.30;;;24.50;61.10;;;24.94;44.88;94294.91;5079041;28;20537;-37
2023/07/28 01:12:52;;;;;;;0.30;0.30;;;24.50;61.10;;;24.94;45.12;94297.56;5077177;28;20232;-36
2023/07/28 01:15:19;;;;;;;0.40;0.40;;;24.40;61.10;;;24.95;44.87;94298.38;5076684;28;20264;-37
2023/07/28 01:17:46;;;;;;;0.30;0.30;;;24.40;61.10;;;24.95;45.16;94293.03;5076926;28;20229;-37
2023/07/28 01:20:13;;;;;;;0.30;0.30;;;24.40;61.10;;;24.94;45.25;94292.22;5077313;28;20202;-37
2023/07/28 01:23:02;;;;;;;0.50;0.50;;;24.40;61.10;;;24.93;45.06;94290.63;5077795;28;20193;-37
2023/07/28 01:26:01;;;;;;;0.30;0.30;;;24.40;61.10;;;24.90;45.02;94283.19;5076778;28;20297;-39
2023/07/28 01:28:29;;;;;;;0.30;0.30;;;24.40;61.10;;;24.90;45.05;94285.06;5060431;28;20205;-37
2023/07/28 01:30:57;;;;;;;0.30;0.30;;;24.40;61.20;;;24.91;45.08;94278.59;5078224;28;20653;-37
2023/07/28 01:33:24;;;;;;;0.40;0.40;;;24.40;61.30;;;24.91;45.21;94274.03;5077736;28;20213;-38
2023/07/28 01:35:52;;;;;;;0.30;0.30;;;24.40;61.30;;;24.92;45.33;94280.19;5077740;28;20274;-37
2023/07/28 01:38:19;;;;;;;0.40;0.40;;;24.40;61.20;;;24.92;45.45;94274.84;5077007;28;20197;-38
2023/07/28 01:40:46;;;;;;;0.30;0.30;;;24.40;61.40;;;24.92;45.31;94272.16;5078631;28;20213;-37
2023/07/28 01:43:13;;;;;;;0.22;0.22;;;24.40;61.40;;;24.92;45.35;94266.78;5076605;28;20298;-40
2023/07/28 01:45:40;;;;;;;0.30;0.30;;;24.40;61.40;;;24.91;45.62;94270.56;5077363;28;20235;-37
2023/07/28 01:48:09;;;;;;;0.30;0.30;;;24.40;61.50;;;24.93;45.61;94269.16;5077899;28;20208;-40
2023/07/28 01:50:37;;;;;;;0.30;0.30;;;24.40;61.40;;;24.92;45.63;94275.63;5076793;28;20199;-39
2023/07/28 01:53:06;;;;;;;0.30;0.30;;;24.40;61.40;;;24.93;45.35;94271.06;5078222;28;20195;-37
2023/07/28 01:55:33;;;;;;;0.30;0.30;;;24.40;61.40;;;24.92;45.38;94264.09;5060087;28;20513;-38
2023/07/28 01:58:03;;;;;;;0.60;0.60;;;24.40;61.30;;;24.93;45.46;94254.97;5077064;28;20204;-39
2023/07/28 02:00:30;;;;;;;0.50;0.50;;;24.40;61.40;;;24.91;45.73;94239.19;5081513;28;20230;-41
2023/07/28 02:02:58;;;;;;;0.60;0.60;;;24.40;61.50;;;24.90;45.81;94242.94;5081872;28;20639;-37
2023/07/28 02:05:25;;;;;;;0.30;0.30;;;24.40;61.50;;;24.90;45.50;94242.94;5082164;28;20206;-37
2023/07/28 02:07:53;;;;;;;0.40;0.40;;;24.40;61.50;;;24.90;45.73;94251.00;5082519;28;20213;-39
2023/07/28 02:10:21;;;;;;;0.30;0.30;;;24.40;61.50;;;24.90;45.54;94256.34;5081831;28;20191;-37
2023/07/28 02:12:48;;;;;;;0.50;0.50;;;24.40;61.40;;;24.90;45.74;94248.31;5064578;28;20711;-40
2023/07/28 02:15:15;;;;;;;0.22;0.22;;;24.40;61.40;;;24.90;45.53;94248.31;5081814;28;20364;-38
2023/07/28 02:17:43;;;;;;;0.40;0.40;;;24.40;61.50;;;24.89;45.87;94237.84;5081144;28;20203;-39
2023/07/28 02:20:12;;;;;;;0.30;0.30;;;24.40;61.50;;;24.87;45.76;94251.56;5082167;28;20189;-37
2023/07/28 02:22:40;;;;;;;0.30;0.30;;;24.40;61.50;;;24.87;45.69;94256.94;5080257;28;20546;-37
2023/07/28 02:25:08;;;;;;;0.25;0.25;;;24.40;61.50;;;24.88;45.55;94265.81;5080915;28;20591;-37
2023/07/28 02:27:37;;;;;;;0.30;0.30;;;24.40;61.50;;;24.87;45.76;94262.31;5081198;28;20319;-37
2023/07/28 02:30:06;;;;;;;0.52;0.52;;;24.40;61.60;;;24.85;45.58;94269.88;5081340;28;20218;-37
2023/07/28 02:32:33;;;;;;;0.30;0.30;;;24.40;61.50;;;24.83;45.45;94258.66;5081676;28;20327;-38
2023/07/28 02:35:00;;;;;;;0.30;0.30;;;24.40;62.50;;;24.86;45.78;94262.63;5080559;28;20194;-38
2023/07/28 02:37:28;;;;;;;0.35;0.35;;;24.40;61.50;;;24.84;45.74;94260.22;5063077;28;20618;-37
2023/07/28 02:39:55;;;;;;;0.40;0.40;;;24.40;61.70;;;24.86;45.92;94267.97;5079579;28;20197;-37
2023/07/28 02:42:23;;;;;;;0.35;0.35;;;24.40;61.80;;;24.86;46.12;94259.94;5080694;28;20268;-37
2023/07/28 02:44:51;;;;;;;0.40;0.40;;;24.40;61.80;;;24.85;46.08;94256.47;5080535;28;20246;-37
2023/07/28 02:47:18;;;;;;;0.40;0.40;;;24.40;61.80;;;24.86;45.96;94262.63;5080743;28;20592;-37
2023/07/28 02:49:45;;;;;;;0.40;0.40;;;24.40;61.80;;;24.85;46.04;94264.50;5063484;28;20216;-37
2023/07/28 02:52:13;;;;;;;0.30;0.30;;;24.40;61.90;;;24.86;46.06;94257.25;5079946;28;20209;-38
2023/07/28 02:54:40;;;;;;;0.30;0.30;;;24.40;61.80;;;24.85;46.13;94255.66;5080774;28;20188;-37
2023/07/28 02:57:08;;;;;;;0.30;0.30;;;24.40;61.90;;;24.85;46.25;94256.47;5079535;28;20700;-37
2023/07/28 02:59:36;;;;;;;0.38;0.38;;;24.40;61.90;;;24.85;46.32;94256.47;5079762;28;20278;-37
2023/07/28 03:02:04;;;;;;;0.38;0.38;;;24.40;62.90;;;24.86;46.07;94249.19;5079336;28;20320;-39
2023/07/28 03:04:31;;;;;;;0.32;0.32;;;24.40;61.90;;;24.85;46.20;94251.09;5079317;28;20262;-37
2023/07/28 03:07:21;;;;;;;0.50;0.50;;;24.40;61.90;;;24.84;46.07;94252.19;5080579;28;20231;-37
2023/07/28 03:09:55;;;;;;;0.60;0.60;;;24.40;61.90;;;24.85;46.09;94248.41;5080067;28;20274;-37
2023/07/28 03:12:22;;;;;;;0.40;0.40;;;24.40;62.00;;;24.84;46.18;94238.78;5079280;28;20208;-39
2023/07/28 03:14:49;;;;;;;0.40;0.40;;;24.40;62.00;;;24.84;46.26;94246.00;5079147;28;20245;-37
2023/07/28 03:17:16;;;;;;;0.30;0.30;;;24.40;61.80;;;24.83;46.26;94247.09;5079768;28;20235;-39
2023/07/28 03:19:44;;;;;;;0.30;0.30;;;24.40;62.00;;;24.84;46.07;94254.88;5079211;28;20601;-41
2023/07/28 03:22:11;;;;;;;0.30;0.30;;;24.40;61.90;;;24.83;46.31;94253.28;5080976;28;20198;-38
2023/07/28 03:24:38;;;;;;;0.30;0.30;;;24.40;62.00;;;24.84;45.98;94254.88;5079354;28;20258;-38
2023/07/28 03:27:05;;;;;;;0.30;0.30;;;24.40;62.10;;;24.83;46.33;94258.66;5079960;28;20257;-38
2023/07/28 03:29:32;;;;;;;0.30;0.30;;;24.40;61.90;;;24.83;46.28;94255.97;5078795;28;20201;-37
2023/07/28 03:32:00;;;;;;;0.40;0.40;;;24.40;61.90;;;24.83;46.10;94257.81;5080104;28;20247;-38
2023/07/28 03:34:27;;;;;;;0.40;0.40;;;24.40;61.90;;;24.82;46.22;94257.03;5063547;28;20237;-38
2023/07/28 03:36:56;;;;;;;0.30;0.30;;;24.40;62.00;;;24.82;46.28;94270.47;5079282;28;20208;-38
2023/07/28 03:39:23;;;;;;;0.35;0.35;;;24.40;62.00;;;24.81;46.18;94271.53;5079038;28;20581;-40
2023/07/28 03:41:51;;;;;;;0.50;0.50;;;24.40;62.00;;;24.81;46.40;94271.53;5062506;28;20206;-39
2023/07/28 03:44:19;;;;;;;0.30;0.30;;;24.40;62.10;;;24.80;46.33;94269.94;5079369;28;20246;-37
2023/07/28 03:46:47;;;;;;;0.30;0.30;;;24.40;62.10;;;24.81;46.48;94270.75;5079076;28;20228;-40
2023/07/28 03:49:14;;;;;;;0.30;0.30;;;24.40;62.00;;;24.81;46.19;94270.75;5080180;28;20214;-39
2023/07/28 03:51:41;;;;;;;0.30;0.30;;;24.40;62.10;;;24.81;46.47;94268.88;5079797;28;20203;-43
2023/07/28 03:54:08;;;;;;;0.30;0.30;;;24.40;62.20;;;24.80;46.30;94274.53;5078817;28;20207;-38
2023/07/28 03:56:35;;;;;;;0.40;0.40;;;24.40;62.10;;;24.81;46.25;94265.41;5078486;28;20273;-39
2023/07/28 03:59:03;;;;;;;0.50;0.50;;;24.40;62.10;;;24.80;46.47;94269.94;5080411;28;20296;-39
2023/07/28 04:01:31;;;;;;;0.40;0.40;;;24.40;62.00;;;24.80;46.28;94272.63;5079937;28;20193;-39
2023/07/28 04:04:00;;;;;;;0.50;0.50;;;24.40;62.10;;;24.80;46.29;94279.91;5080375;28;20522;-41
2023/07/28 04:06:50;;;;;;;0.50;0.50;;;24.40;62.00;;;24.77;46.27;94271.34;5079398;28;20193;-39
2023/07/28 04:09:17;;;;;;;0.30;0.30;;;24.40;62.10;;;24.77;46.24;94268.66;5080087;28;20208;-37
2023/07/28 04:11:44;;;;;;;0.30;0.30;;;24.40;62.20;;;24.78;46.61;94272.94;5078413;28;20231;-37
2023/07/28 04:14:12;;;;;;;0.40;0.40;;;24.40;62.30;;;24.78;46.35;94264.91;5078967;28;20186;-37
2023/07/28 04:16:39;;;;;;;0.30;0.30;;;24.30;62.20;;;24.77;46.50;94268.66;5077982;28;20267;-38
2023/07/28 04:19:06;;;;;;;0.30;0.30;;;24.40;62.30;;;24.78;46.77;94266.78;5078720;28;20226;-37
2023/07/28 04:21:33;;;;;;;0.30;0.30;;;24.30;62.20;;;24.77;46.44;94263.31;5076835;28;20247;-37
2023/07/28 04:24:00;;;;;;;0.30;0.30;;;24.30;62.10;;;24.77;46.31;94265.97;5078021;28;20216;-37
2023/07/28 04:26:28;;;;;;;0.32;0.32;;;24.40;62.30;;;24.77;46.91;94270.56;5078392;28;20221;-38
2023/07/28 04:29:00;;;;;;;0.30;0.30;;;24.40;62.40;;;24.76;46.67;94277.78;5061966;28;20308;-37
2023/07/28 04:31:28;;;;;;;0.35;0.35;;;24.40;62.40;;;24.78;46.87;94282.88;5077264;28;20217;-37
2023/07/28 04:33:59;;;;;;;0.30;0.30;;;24.40;62.50;;;24.78;46.88;94281.00;5077398;28;20720;-37
2023/07/28 04:36:43;;;;;;;0.30;0.30;;;24.40;62.40;;;24.78;46.77;94289.03;5077486;28;20194;-37
2023/07/28 04:39:10;;;;;;;0.50;0.50;;;24.40;62.40;;;24.78;47.07;94283.66;5077604;28;20551;-37
2023/07/28 04:41:38;;;;;;;0.30;0.30;;;24.40;62.50;;;24.79;46.84;94287.13;5078496;28;20583;-37
2023/07/28 04:44:05;;;;;;;0.30;0.30;;;24.40;62.50;;;24.78;47.06;94286.34;5077188;28;20209;-37
2023/07/28 04:46:37;;;;;;;0.40;0.40;;;24.40;62.50;;;24.80;46.76;94285.25;5077462;28;20209;-37
2023/07/28 04:49:09;;;;;;;0.50;0.50;;;24.40;62.60;;;24.79;46.92;94289.81;5078033;28;20244;-38
2023/07/28 04:52:14;;;;;;;0.30;0.30;;;24.40;62.50;;;24.80;46.99;94282.56;5037100;28;20577;-37
2023/07/28 04:54:41;;;;;;;0.30;0.30;;;24.40;62.50;;;24.79;47.13;94281.78;5020141;28;20206;-37
2023/07/28 04:57:09;;;;;;;0.30;0.30;;;24.40;62.30;;;24.80;46.52;94286.03;5055835;28;20205;-37
2023/07/28 04:59:38;;;;;;;0.43;0.43;;;24.40;62.30;;;24.80;46.76;94282.56;5060784;28;20267;-38
2023/07/28 05:02:06;;;;;;;0.40;0.40;;;24.40;62.30;;;24.80;46.74;94280.69;5077889;28;20651;-37
2023/07/28 05:04:33;;;;;;;0.40;0.40;;;24.40;62.30;;;24.81;46.60;94286.84;5076998;28;20240;-38
2023/07/28 05:07:00;;;;;;;0.50;0.50;;;24.40;62.40;;;24.82;46.67;94291.13;5076877;28;20228;-37
2023/07/28 05:09:28;;;;;;;0.30;0.30;;;24.40;62.50;;;24.82;47.13;94289.22;5077849;28;20211;-37
2023/07/28 05:11:56;;;;;;;0.30;0.30;;;24.40;62.60;;;24.82;46.71;94285.78;5077090;28;20198;-37
2023/07/28 05:14:24;;;;;;;0.40;0.40;;;24.40;62.60;;;24.83;46.74;94287.34;5077765;28;20220;-39
2023/07/28 05:16:51;;;;;;;0.50;0.50;;;24.40;62.50;;;24.82;46.72;94294.59;5076506;28;20206;-37
2023/07/28 05:19:29;;;;;;;0.40;0.40;;;24.40;62.50;;;24.82;46.37;94283.88;5077224;28;20198;-39
2023/07/28 05:22:14;;;;;;;0.40;0.40;;;24.40;62.40;;;24.82;46.96;94288.44;5078292;28;20197;-39
2023/07/28 05:24:46;;;;;;;0.40;0.40;;;24.40;62.40;;;24.82;46.59;94289.22;5077473;28;20661;-40
2023/07/28 05:27:14;;;;;;;0.50;0.50;;;24.40;62.30;;;24.83;46.68;94295.38;5076948;28;20201;-38
2023/07/28 05:29:44;;;;;;;0.60;0.60;;;24.40;62.40;;;24.83;46.49;94296.19;5077412;28;20236;-40
2023/07/28 05:32:12;;;;;;;0.40;0.40;;;24.40;62.50;;;24.84;46.70;94300.47;5077046;28;20200;-38
2023/07/28 05:35:07;;;;;;;0.40;0.40;;;24.40;62.50;;;24.82;47.00;94305.31;5077417;28;20293;-42
2023/07/28 05:37:34;;;;;;;0.30;0.30;;;24.40;62.30;;;24.83;46.75;94303.44;5077414;28;20205;-39
2023/07/28 05:40:02;;;;;;;0.30;0.30;;;24.40;62.40;;;24.83;46.95;94308.78;5075324;28;20271;-39
2023/07/28 05:42:31;;;;;;;0.40;0.40;;;24.40;62.30;;;24.84;46.62;94305.03;5073997;28;20202;-39
2023/07/28 05:44:59;;;;;;;0.25;0.25;;;24.40;62.40;;;24.84;47.02;94297.78;5074925;28;20247;-38
2023/07/28 05:47:26;;;;;;;0.30;0.30;;;24.40;62.50;;;24.85;47.02;94302.06;5074209;28;20225;-38
2023/07/28 05:49:54;;;;;;;0.30;0.30;;;24.40;62.60;;;24.86;47.06;94305.53;5075007;28;20220;-38
2023/07/28 05:52:22;;;;;;;0.30;0.30;;;24.40;62.70;;;24.86;47.17;94297.47;5074094;28;20205;-38
2023/07/28 05:54:49;;;;;;;0.30;0.30;;;24.40;62.70;;;24.85;47.09;94302.06;5074190;28;20196;-37
2023/07/28 05:57:17;;;;;;;0.40;0.40;;;24.40;62.70;;;24.86;47.06;94298.25;5075157;28;20220;-39
2023/07/28 05:59:44;;;;;;;0.25;0.25;;;24.40;62.80;;;24.89;47.35;94291.50;5075032;28;20190;-38
2023/07/28 06:02:11;;;;;;;0.35;0.35;;;24.40;62.80;;;24.88;47.36;94289.94;5073940;28;20521;-37
2023/07/28 06:04:58;;;;;;;0.40;0.40;;;24.40;62.90;;;24.88;46.85;94301.47;5074930;28;20205;-38
2023/07/28 06:07:26;;;;;;;0.50;0.50;;;24.40;62.70;;;24.89;47.21;94299.56;5074826;28;20195;-37
2023/07/28 06:09:54;;;;;;;0.40;0.40;;;24.40;62.70;;;24.90;47.31;94301.16;5073848;28;20206;-38
2023/07/28 06:12:21;;;;;;;0.30;0.30;;;24.40;62.70;;;24.91;47.12;94303.56;5075172;28;20551;-37
2023/07/28 06:14:48;;;;;;;0.30;0.30;;;24.50;62.80;;;24.91;47.12;94303.56;5074914;28;20576;-38
2023/07/28 06:17:15;;;;;;;0.30;0.30;;;24.50;62.70;;;24.91;47.03;94303.56;5073688;28;20206;-37
2023/07/28 06:19:42;;;;;;;0.30;0.30;;;24.50;62.70;;;24.91;46.71;94298.19;5075023;28;20189;-37
2023/07/28 06:22:10;;;;;;;0.40;0.40;;;24.50;62.70;;;24.93;46.85;94293.31;5057087;28;20285;-37
2023/07/28 06:24:43;;;;;;;0.50;0.50;;;24.50;62.60;;;24.93;46.78;94290.63;5073540;28;20214;-39
2023/07/28 06:27:11;;;;;;;0.22;0.22;;;24.50;62.60;;;24.95;46.82;94293.03;5074647;28;20191;-36
2023/07/28 06:29:39;;;;;;;0.30;0.30;;;24.50;62.60;;;24.95;46.83;94290.34;5073649;28;20223;-36
2023/07/28 06:32:07;;;;;;;0.30;0.30;;;24.50;62.70;;;24.97;47.10;94292.72;5073415;28;20611;-39
2023/07/28 06:34:35;;;;;;;0.30;0.30;;;24.50;62.70;;;24.98;47.18;94294.31;5073999;28;20202;-39
2023/07/28 06:37:02;;;;;;;0.40;0.40;;;24.50;62.70;;;24.99;47.11;94295.91;5074939;28;20198;-38
2023/07/28 06:39:30;;;;;;;0.30;0.30;;;24.50;62.70;;;24.99;46.77;94296.69;5073569;28;20211;-39
2023/07/28 06:41:57;;;;;;;0.30;0.30;;;24.50;62.60;;;25.00;46.67;94300.16;5073295;28;20216;-38
2023/07/28 06:44:26;;;;;;;0.40;0.40;;;24.50;62.50;;;25.00;46.98;94300.97;5073877;28;20242;-39
2023/07/28 06:46:53;;;;;;;0.38;0.38;;;24.50;62.50;;;25.01;46.75;94299.06;5076926;28;20209;-39
2023/07/28 06:49:20;;;;;;;0.30;0.30;;;24.50;62.60;;;25.01;46.72;94299.88;5076737;28;20245;-39
2023/07/28 06:51:47;;;;;;;0.50;0.50;;;24.50;62.50;;;25.02;46.60;94298.75;5076649;28;20280;-39
2023/07/28 06:54:18;;;;;;;0.30;0.30;;;24.60;62.60;;;25.03;46.74;94294.22;5077040;28;20200;-38
2023/07/28 06:56:45;;;;;;;0.30;0.30;;;24.60;62.60;;;25.03;46.77;94286.94;5076877;28;20620;-39
2023/07/28 06:59:12;;;;;;;0.30;0.30;;;24.60;62.60;;;25.03;46.93;94291.53;5077569;28;20590;-39
2023/07/28 07:01:45;;;;;;;0.30;0.30;;;24.60;62.50;;;25.03;46.69;94291.53;5077985;28;20638;-37
2023/07/28 07:04:13;;;;;;;0.40;0.40;;;24.60;62.50;;;25.04;46.93;94287.75;5078759;28;20201;-39
2023/07/28 07:06:40;;;;;;;0.30;0.30;;;24.60;62.40;;;25.04;46.80;94296.59;5077639;28;20223;-37
2023/07/28 07:09:08;;;;;;;0.30;0.30;;;24.60;62.40;;;25.04;46.73;94293.91;5077237;28;20313;-37
2023/07/28 07:11:36;;;;;;;0.30;0.30;;;24.60;62.50;;;25.05;46.90;94292.03;5076856;28;20728;-38
2023/07/28 07:14:04;;;;;;;0.40;0.40;;;24.60;62.50;;;25.06;46.86;94296.28;5076721;28;20225;-41
2023/07/28 07:16:32;;;;;;;0.30;0.30;;;24.60;62.40;;;25.07;46.45;94300.56;5077422;28;20195;-37
2023/07/28 07:18:59;;;;;;;0.30;0.30;;;24.60;62.50;;;25.07;46.75;94301.38;5077304;28;20239;-39
2023/07/28 07:21:29;;;;;;;0.35;0.35;;;24.60;62.50;;;25.08;46.84;94294.09;5077218;28;20195;-39
2023/07/28 07:23:57;;;;;;;0.30;0.30;;;24.60;62.50;;;25.08;46.84;94299.47;5078268;28;20211;-36
2023/07/28 07:26:25;;;;;;;0.30;0.30;;;24.60;62.50;;;25.09;46.64;94296.47;5076866;28;20267;-37
2023/07/28 07:28:52;;;;;;;0.40;0.40;;;24.60;62.50;;;25.11;46.69;94285.47;5078141;28;20663;-38
2023/07/28 07:31:20;;;;;;;0.30;0.30;;;24.70;62.50;;;25.11;46.83;94285.47;5077722;28;20199;-39
2023/07/28 07:33:48;;;;;;;0.30;0.30;;;24.60;62.50;;;25.13;46.67;94291.31;5077162;28;20305;-39
2023/07/28 07:36:17;;;;;;;0.30;0.30;;;24.70;62.50;;;25.15;46.75;94296.41;5078747;28;20517;-37
2023/07/28 07:38:46;;;;;;;0.30;0.30;;;24.70;62.50;;;25.14;46.87;94292.91;5076750;28;20297;-40
2023/07/28 07:41:19;;;;;;;0.40;0.40;;;24.70;62.50;;;25.16;46.55;94293.41;5076978;28;20206;-40
2023/07/28 07:43:49;;;;;;;0.30;0.30;;;24.70;63.40;;;25.17;46.65;94299.56;5076999;28;20198;-42
2023/07/28 07:46:17;;;;;;;0.40;0.40;;;24.70;62.40;;;25.20;46.62;94290.91;5077091;28;20224;-37
2023/07/28 07:48:46;;;;;;;0.52;0.52;;;24.70;63.40;;;25.20;46.53;94293.59;5077193;28;20260;-38
2023/07/28 07:51:14;;;;;;;0.30;0.30;;;24.70;62.40;;;25.20;46.69;94294.38;5076217;28;20206;-37
2023/07/28 07:53:41;;;;;;;0.40;0.40;;;24.80;62.40;;;25.22;46.61;94302.16;5077558;28;20233;-37
2023/07/28 07:56:10;;;;;;;0.57;0.57;;;24.80;62.50;;;25.23;46.84;94304.53;5077837;28;20201;-37
2023/07/28 07:58:37;;;;;;;0.30;0.30;;;24.80;62.50;;;25.24;46.47;94303.44;5076833;28;20284;-37
2023/07/28 08:01:05;;;;;;;0.30;0.30;;;24.80;62.50;;;25.26;46.99;94319.25;5077102;28;20601;-38
2023/07/28 08:03:32;;;;;;;0.35;0.35;;;24.80;62.50;;;25.27;46.62;94315.47;5076301;28;20269;-37
2023/07/28 08:06:00;;;;;;;0.43;0.43;;;24.80;62.40;;;25.31;46.56;94315.66;5076341;28;20598;-37
2023/07/28 08:08:27;;;;;;;0.30;0.30;;;24.90;62.50;;;25.31;46.69;94321.03;5076483;28;20276;-39
2023/07/28 08:10:55;;;;;;;0.40;0.40;;;24.80;62.30;;;25.32;46.51;94318.03;5076349;28;20220;-41
2023/07/28 08:13:23;;;;;;;0.30;0.30;;;24.90;62.40;;;25.34;46.66;94329.28;5076641;28;20218;-37
2023/07/28 08:15:51;;;;;;;0.28;0.28;;;24.90;62.40;;;25.35;46.61;94320.13;5075379;28;20212;-40
2023/07/28 08:18:18;;;;;;;0.30;0.30;;;24.90;62.40;;;25.37;46.47;94328.69;5076602;28;20252;-37
2023/07/28 08:20:45;;;;;;;0.50;0.50;;;24.90;62.40;;;25.39;46.61;94328.41;5076220;28;20216;-39
2023/07/28 08:23:12;;;;;;;0.30;0.30;;;24.90;62.40;;;25.40;46.64;94333.47;5075971;28;20231;-40
2023/07/28 08:25:39;;;;;;;0.30;0.30;;;24.90;62.40;;;25.42;46.16;94333.16;5075943;28;20555;-37
2023/07/28 08:28:07;;;;;;;0.30;0.30;;;24.90;62.30;;;25.45;46.30;94345.19;5076588;28;20549;-38
2023/07/28 08:30:34;;;;;;;0.30;0.30;;;24.90;62.30;;;25.47;46.59;94334.97;5076128;28;20547;-38
2023/07/28 08:33:02;;;;;;;0.20;0.20;;;25.00;62.40;;;25.48;46.38;94344.63;5076181;28;20204;-38
2023/07/28 08:35:29;;;;;;;0.30;0.30;;;25.00;62.30;;;25.49;46.31;94338.94;5075931;28;20222;-39
2023/07/28 08:37:56;;;;;;;0.50;0.50;;;25.00;62.30;;;25.50;46.32;94335.16;5075963;28;20213;-39
2023/07/28 08:40:24;;;;;;;0.22;0.22;;;25.00;62.30;;;25.52;46.58;94337.53;5076634;28;20261;-36
2023/07/28 08:42:51;;;;;;;0.30;0.30;;;25.00;62.30;;;25.52;46.68;94327.59;5075852;28;20282;-39
2023/07/28 08:45:20;;;;;;;0.30;0.30;;;25.00;62.20;;;25.54;46.16;94324.63;5076150;28;20757;-37
2023/07/28 08:47:47;;;;;;;0.30;0.30;;;25.00;62.10;;;25.55;46.53;94326.22;5075533;28;20186;-37
2023/07/28 08:50:15;;;;;;;0.40;0.40;;;25.00;62.20;;;25.56;46.25;94323.22;5075730;28;20211;-37
2023/07/28 08:52:42;;;;;;;0.30;0.30;;;25.10;62.20;;;25.59;46.39;94321.81;5075313;28;20193;-40
2023/07/28 08:55:09;;;;;;;0.40;0.40;;;25.10;62.20;;;25.62;46.13;94337.34;5074474;28;20209;-43
2023/07/28 08:57:36;;;;;;;0.30;0.30;;;25.10;62.20;;;25.65;46.14;94341.31;5075468;28;20628;-38
2023/07/28 09:00:13;;;;;;;0.30;0.30;;;25.10;62.10;;;25.66;46.39;94343.69;5075357;28;20202;-41
2023/07/28 09:02:42;;;;;;;0.20;0.20;;;25.10;62.10;;;25.69;46.01;94344.97;5074353;28;20244;-41
2023/07/28 09:05:20;;;;;;;0.30;0.30;;;25.10;63.00;;;25.71;46.21;94346.25;5075562;28;20527;-40
2023/07/28 09:07:48;;;;;;;0.30;0.30;;;25.20;62.10;;;25.73;46.00;94340.56;5075164;28;20190;-41
2023/07/28 09:10:15;;;;;;;0.30;0.30;;;25.20;62.10;;;25.76;45.86;94337.28;5075166;28;20211;-42
2023/07/28 09:12:51;;;;;;;0.30;0.30;;;25.20;62.10;;;25.78;45.90;94335.09;5075128;28;20587;-42
2023/07/28 09:15:18;;;;;;;0.30;0.30;;;25.30;62.10;;;25.80;46.22;94351.69;5075400;28;20184;-42
2023/07/28 09:17:46;;;;;;;0.40;0.40;;;25.30;62.20;;;25.81;46.24;94350.59;5075157;28;20277;-42
2023/07/28 09:20:16;;;;;;;0.30;0.30;;;25.30;62.00;;;25.83;45.89;94353.78;5075078;28;20195;-43
2023/07/28 09:22:44;;;;;;;0.30;0.30;;;25.30;61.90;;;25.85;45.75;94342.75;5074082;28;20196;-39
2023/07/28 09:25:16;;;;;;;0.30;0.30;;;25.30;61.90;;;25.86;45.95;94349.72;5075265;28;20195;-40
2023/07/28 09:27:53;;;;;;;0.30;0.30;;;25.30;61.80;;;25.87;46.03;94349.41;5075643;28;20185;-40
2023/07/28 09:30:21;;;;;;;0.30;0.30;;;25.40;61.90;;;25.90;45.81;94358.75;5075390;28;20253;-40
2023/07/28 09:32:55;;;;;;;0.28;0.28;;;25.40;61.90;;;25.91;45.66;94356.88;5074804;28;20213;-40
2023/07/28 09:35:23;;;;;;;0.45;0.45;;;25.40;61.70;;;25.91;45.33;94360.34;5075497;28;20183;-40
2023/07/28 09:37:52;;;;;;;0.30;0.30;;;25.40;61.80;;;25.94;45.46;94358.94;5073931;28;20195;-40
2023/07/28 09:40:22;;;;;;;0.30;0.30;;;25.40;62.50;;;25.95;45.80;94361.34;5075232;28;20187;-40
2023/07/28 09:42:50;;;;;;;0.30;0.30;;;25.40;61.70;;;25.97;45.57;94363.72;5073830;28;20193;-40
2023/07/28 09:45:21;;;;;;;0.45;0.45;;;25.40;61.70;;;25.99;45.77;94365.00;5074793;28;20312;-37
2023/07/28 09:48:09;;;;;;;0.30;0.30;;;25.50;61.80;;;26.01;46.07;94359.31;5075113;28;20211;-37
2023/07/28 09:50:40;;;;;;;0.30;0.30;;;25.50;61.70;;;26.02;45.41;94363.59;5075412;28;20199;-37
2023/07/28 09:53:12;;;;;;;0.30;0.30;;;25.50;61.80;;;26.03;45.70;94360.59;5073857;28;20616;-38
2023/07/28 09:55:42;;;;;;;0.30;0.30;;;25.50;61.70;;;26.06;45.75;94356.50;5075155;28;20189;-37
2023/07/28 09:58:12;;;;;;;0.20;0.20;;;25.50;61.70;;;26.05;45.68;94350.34;5074086;28;20191;-37
2023/07/28 10:00:41;;;;;;;0.30;0.30;;;25.50;61.70;;;26.07;45.66;94355.44;5074692;28;20203;-37
2023/07/28 10:03:09;;;;;;;0.50;0.50;;;25.60;61.70;;;26.08;45.31;94359.72;5074682;28;20592;-37
2023/07/28 10:05:38;;;;;;;0.30;0.30;;;25.50;61.60;;;26.09;45.34;94350.56;5057403;28;20521;-37
2023/07/28 10:08:05;;;;;;;0.30;0.30;;;25.60;61.50;;;26.12;45.72;94366.09;5074836;28;20583;-37
2023/07/28 10:10:33;;;;;;;0.30;0.30;;;25.60;61.50;;;26.13;45.70;94356.13;5074509;28;20223;-38
2023/07/28 10:13:00;;;;;;;0.20;0.20;;;25.60;61.60;;;26.16;45.47;94344.78;5074650;28;20188;-37
2023/07/28 10:15:32;;;;;;;0.30;0.30;;;25.60;61.50;;;26.17;45.17;94347.16;5073843;28;20681;-37
2023/07/28 10:17:59;;;;;;;0.30;0.30;;;25.60;61.50;;;26.19;45.31;94347.63;5074744;28;20631;-37
2023/07/28 10:20:28;;;;;;;0.30;0.30;;;25.70;61.60;;;26.21;45.40;94344.66;5077982;28;20199;-37
2023/07/28 10:23:14;;;;;;;0.30;0.30;;;25.60;61.50;;;26.23;45.30;94344.34;5078307;28;20670;-37
2023/07/28 10:25:43;;;;;;;0.30;0.30;;;25.70;61.50;;;26.25;45.61;94342.94;5078805;28;20251;-38
2023/07/28 10:28:38;;;;;;;0.30;0.30;;;25.70;61.60;;;26.25;45.61;94348.31;5078167;28;20219;-37